Time,TemperatureF,DewpointF,PressureIn,WindDirection,WindDirectionDegrees,WindSpeedMPH,WindSpeedGustMPH,Humidity,HourlyPrecipIn,Conditions,Clouds,dailyrainin,SoftwareType,DateUTC
2013-07-26 00:44:00,58.9,56.6,30.02,WSW,248,0.0,-999.0,92,0.00,,,0.00,Wunderground v.1.15,2013-07-26 07:44:00,
2013-07-26 00:49:00,58.5,56.5,30.01,N/A,-737280,0.0,-999.0,93,0.00,,,0.00,Wunderground v.1.15,2013-07-26 07:49:00,
2013-07-26 00:54:00,58.5,56.5,30.01,N/A,-737280,0.0,-999.0,93,0.00,,,0.00,Wunderground v.1.15,2013-07-26 07:54:00,
2013-07-26 00:59:00,58.5,56.5,30.01,N/A,-737280,0.0,-999.0,93,0.00,,,0.00,Wunderground v.1.15,2013-07-26 07:59:00,
2013-07-26 01:04:00,58.5,56.5,30.01,N/A,-737280,0.0,-999.0,93,0.00,,,0.00,Wunderground v.1.15,2013-07-26 08:04:00,
2013-07-26 01:09:00,58.5,56.5,30.01,N/A,-737280,0.0,-999.0,93,0.00,,,0.00,Wunderground v.1.15,2013-07-26 08:09:00,
2013-07-26 01:14:00,58.5,56.5,30.01,N/A,-737280,0.0,-999.0,93,0.00,,,0.00,Wunderground v.1.15,2013-07-26 08:14:00,
2013-07-26 01:19:00,57.9,55.9,30.01,N/A,-737280,0.0,-999.0,93,0.00,,,0.00,Wunderground v.1.15,2013-07-26 08:19:00,
2013-07-26 01:24:00,57.9,55.9,30.01,N/A,-737280,0.0,-999.0,93,0.00,,,0.00,Wunderground v.1.15,2013-07-26 08:24:00,
2013-07-26 01:29:00,57.9,55.9,30.01,N/A,-737280,0.0,-999.0,93,0.00,,,0.00,Wunderground v.1.15,2013-07-26 08:29:00,
2013-07-26 01:34:00,57.9,55.9,30.01,N/A,-737280,0.0,-999.0,93,0.00,,,0.00,Wunderground v.1.15,2013-07-26 08:34:00,
2013-07-26 01:39:00,57.9,55.9,30.01,N/A,-737280,0.0,-999.0,93,0.00,,,0.00,Wunderground v.1.15,2013-07-26 08:39:00,
2013-07-26 01:44:00,57.9,55.9,30.01,N/A,-737280,0.0,-999.0,93,0.00,,,0.00,Wunderground v.1.15,2013-07-26 08:44:00,
2013-07-26 01:49:00,58.2,56.5,30.01,WSW,248,0.0,-999.0,94,0.00,,,0.00,Wunderground v.1.15,2013-07-26 08:49:00,
2013-07-26 01:54:00,58.2,56.5,30.01,WSW,248,0.0,-999.0,94,0.00,,,0.00,Wunderground v.1.15,2013-07-26 08:54:00,
2013-07-26 01:59:00,58.2,56.5,30.01,WSW,248,0.0,-999.0,94,0.00,,,0.00,Wunderground v.1.15,2013-07-26 08:59:00,
2013-07-26 02:04:00,58.2,56.5,30.01,WSW,248,0.0,-999.0,94,0.00,,,0.00,Wunderground v.1.15,2013-07-26 09:04:00,
2013-07-26 02:09:00,58.2,56.5,30.01,WSW,248,0.0,-999.0,94,0.00,,,0.00,Wunderground v.1.15,2013-07-26 09:09:00,
2013-07-26 02:14:00,58.2,56.5,30.01,WSW,248,0.0,-999.0,94,0.00,,,0.00,Wunderground v.1.15,2013-07-26 09:14:00,
2013-07-26 02:19:00,57.8,56.1,30.01,WSW,248,0.0,-999.0,94,0.00,,,0.00,Wunderground v.1.15,2013-07-26 09:19:00,
2013-07-26 02:24:00,57.8,56.1,30.01,WSW,248,0.0,-999.0,94,0.00,,,0.00,Wunderground v.1.15,2013-07-26 09:24:00,
2013-07-26 02:29:00,57.8,56.1,30.01,WSW,248,0.0,-999.0,94,0.00,,,0.00,Wunderground v.1.15,2013-07-26 09:29:00,
2013-07-26 02:34:00,57.8,56.1,30.01,WSW,248,0.0,-999.0,94,0.00,,,0.00,Wunderground v.1.15,2013-07-26 09:34:00,
2013-07-26 02:39:00,57.8,56.1,30.01,WSW,248,0.0,-999.0,94,0.00,,,0.00,Wunderground v.1.15,2013-07-26 09:39:00,
2013-07-26 02:44:00,57.8,56.1,30.01,WSW,248,0.0,-999.0,94,0.00,,,0.00,Wunderground v.1.15,2013-07-26 09:44:00,
2013-07-26 02:49:00,58.1,56.4,30.02,N/A,-737280,0.0,-999.0,94,0.00,,,0.00,Wunderground v.1.15,2013-07-26 09:49:00,
2013-07-26 02:54:00,58.1,56.4,30.02,N/A,-737280,0.0,-999.0,94,0.00,,,0.00,Wunderground v.1.15,2013-07-26 09:54:00,
2013-07-26 02:59:00,58.1,56.4,30.02,N/A,-737280,0.0,-999.0,94,0.00,,,0.00,Wunderground v.1.15,2013-07-26 09:59:00,
2013-07-26 03:04:00,58.1,56.4,30.02,N/A,-737280,0.0,-999.0,94,0.00,,,0.00,Wunderground v.1.15,2013-07-26 10:04:00,
2013-07-26 03:09:00,58.1,56.4,30.02,N/A,-737280,0.0,-999.0,94,0.00,,,0.00,Wunderground v.1.15,2013-07-26 10:09:00,
2013-07-26 03:14:00,58.1,56.4,30.02,N/A,-737280,0.0,-999.0,94,0.00,,,0.00,Wunderground v.1.15,2013-07-26 10:14:00,
2013-07-26 03:19:00,58.0,56.3,30.01,N/A,-737280,0.0,-999.0,94,0.00,,,0.00,Wunderground v.1.15,2013-07-26 10:19:00,
2013-07-26 03:24:00,58.0,56.3,30.01,N/A,-737280,0.0,-999.0,94,0.00,,,0.00,Wunderground v.1.15,2013-07-26 10:24:00,
2013-07-26 03:29:00,58.0,56.3,30.01,N/A,-737280,0.0,-999.0,94,0.00,,,0.00,Wunderground v.1.15,2013-07-26 10:29:00,
2013-07-26 03:34:00,58.0,56.3,30.01,N/A,-737280,0.0,-999.0,94,0.00,,,0.00,Wunderground v.1.15,2013-07-26 10:34:00,
2013-07-26 03:39:00,58.0,56.3,30.01,N/A,-737280,0.0,-999.0,94,0.00,,,0.00,Wunderground v.1.15,2013-07-26 10:39:00,
2013-07-26 03:44:00,58.0,56.3,30.01,N/A,-737280,0.0,-999.0,94,0.00,,,0.00,Wunderground v.1.15,2013-07-26 10:44:00,
2013-07-26 03:49:00,57.9,56.5,30.02,N/A,-737280,0.0,-999.0,95,0.00,,,0.00,Wunderground v.1.15,2013-07-26 10:49:00,
2013-07-26 03:54:00,57.9,56.5,30.02,N/A,-737280,0.0,-999.0,95,0.00,,,0.00,Wunderground v.1.15,2013-07-26 10:54:00,
2013-07-26 03:59:00,57.9,56.5,30.02,N/A,-737280,0.0,-999.0,95,0.00,,,0.00,Wunderground v.1.15,2013-07-26 10:59:00,
2013-07-26 04:04:00,57.9,56.5,30.02,N/A,-737280,0.0,-999.0,95,0.00,,,0.00,Wunderground v.1.15,2013-07-26 11:04:00,
2013-07-26 04:09:00,57.9,56.5,30.02,N/A,-737280,0.0,-999.0,95,0.00,,,0.00,Wunderground v.1.15,2013-07-26 11:09:00,
2013-07-26 04:14:00,57.9,56.5,30.02,N/A,-737280,0.0,-999.0,95,0.00,,,0.00,Wunderground v.1.15,2013-07-26 11:14:00,
2013-07-26 04:19:00,58.2,56.8,30.02,N/A,-737280,0.0,-999.0,95,0.00,,,0.00,Wunderground v.1.15,2013-07-26 11:19:00,
2013-07-26 04:24:00,58.2,56.8,30.02,N/A,-737280,0.0,-999.0,95,0.00,,,0.00,Wunderground v.1.15,2013-07-26 11:24:00,
2013-07-26 04:29:00,58.2,56.8,30.02,N/A,-737280,0.0,-999.0,95,0.00,,,0.00,Wunderground v.1.15,2013-07-26 11:29:00,
2013-07-26 04:34:00,58.2,56.8,30.02,N/A,-737280,0.0,-999.0,95,0.00,,,0.00,Wunderground v.1.15,2013-07-26 11:34:00,
2013-07-26 04:39:00,58.2,56.8,30.02,N/A,-737280,0.0,-999.0,95,0.00,,,0.00,Wunderground v.1.15,2013-07-26 11:39:00,
2013-07-26 04:44:00,58.2,56.8,30.02,N/A,-737280,0.0,-999.0,95,0.00,,,0.00,Wunderground v.1.15,2013-07-26 11:44:00,
2013-07-26 04:49:00,58.9,57.5,30.02,N/A,-737280,0.0,-999.0,95,0.00,,,0.00,Wunderground v.1.15,2013-07-26 11:49:00,
2013-07-26 04:54:00,58.9,57.5,30.02,N/A,-737280,0.0,-999.0,95,0.00,,,0.00,Wunderground v.1.15,2013-07-26 11:54:00,
2013-07-26 04:59:00,58.9,57.5,30.02,N/A,-737280,0.0,-999.0,95,0.00,,,0.00,Wunderground v.1.15,2013-07-26 11:59:00,
2013-07-26 05:04:00,58.9,57.5,30.02,N/A,-737280,0.0,-999.0,95,0.00,,,0.00,Wunderground v.1.15,2013-07-26 12:04:00,
2013-07-26 05:09:00,58.9,57.5,30.02,N/A,-737280,0.0,-999.0,95,0.00,,,0.00,Wunderground v.1.15,2013-07-26 12:09:00,
2013-07-26 05:14:00,58.9,57.5,30.02,N/A,-737280,0.0,-999.0,95,0.00,,,0.00,Wunderground v.1.15,2013-07-26 12:14:00,
2013-07-26 05:19:00,59.1,57.4,30.02,N/A,-737280,0.0,-999.0,94,0.00,,,0.00,Wunderground v.1.15,2013-07-26 12:19:00,
2013-07-26 05:24:00,59.1,57.4,30.02,N/A,-737280,0.0,-999.0,94,0.00,,,0.00,Wunderground v.1.15,2013-07-26 12:24:00,
2013-07-26 05:29:00,59.1,57.4,30.02,N/A,-737280,0.0,-999.0,94,0.00,,,0.00,Wunderground v.1.15,2013-07-26 12:29:00,
2013-07-26 05:44:00,59.1,57.4,30.03,West,259,0.0,0.0,94,0.00,,,0.00,Wunderground v.1.15,2013-07-26 12:44:00,
2013-07-26 05:50:00,59.2,57.5,30.04,WSW,258,0.0,0.0,94,0.00,,,0.00,Wunderground v.1.15,2013-07-26 12:50:00,
2013-07-26 05:56:00,59.3,57.6,30.03,WSW,258,0.0,0.0,94,0.00,,,0.00,Wunderground v.1.15,2013-07-26 12:56:00,
2013-07-26 06:02:00,59.3,57.6,30.04,West,259,0.0,0.0,94,0.00,,,0.00,Wunderground v.1.15,2013-07-26 13:02:00,
2013-07-26 06:08:00,59.4,57.7,30.04,WSW,258,0.0,0.0,94,0.00,,,0.00,Wunderground v.1.15,2013-07-26 13:08:00,
2013-07-26 06:14:00,59.6,57.9,30.04,North,6,0.0,0.0,94,0.00,,,0.00,Wunderground v.1.15,2013-07-26 13:14:00,
2013-07-26 06:20:00,59.7,58.0,30.04,North,6,0.0,0.0,94,0.00,,,0.00,Wunderground v.1.15,2013-07-26 13:20:00,
2013-07-26 06:26:00,59.8,57.8,30.04,North,8,0.0,0.0,93,0.00,,,0.00,Wunderground v.1.15,2013-07-26 13:26:00,
2013-07-26 06:32:00,59.9,57.9,30.05,North,8,0.0,0.0,93,0.00,,,0.00,Wunderground v.1.15,2013-07-26 13:32:00,
2013-07-26 06:38:00,60.0,58.0,30.05,North,356,0.0,0.0,93,0.00,,,0.00,Wunderground v.1.15,2013-07-26 13:38:00,
2013-07-26 06:44:00,60.1,58.1,30.05,North,355,0.0,0.0,93,0.00,,,0.00,Wunderground v.1.15,2013-07-26 13:44:00,
2013-07-26 06:50:00,60.2,58.2,30.05,NNE,19,0.0,0.0,93,0.00,,,0.00,Wunderground v.1.15,2013-07-26 13:50:00,
2013-07-26 06:56:00,60.2,58.2,30.05,North,360,1.0,2.0,93,0.00,,,0.00,Wunderground v.1.15,2013-07-26 13:56:00,
2013-07-26 07:02:00,60.2,58.2,30.05,NNE,12,1.0,1.0,93,0.00,,,0.00,Wunderground v.1.15,2013-07-26 14:02:00,
2013-07-26 07:08:00,60.2,58.2,30.05,North,6,1.0,1.0,93,0.00,,,0.00,Wunderground v.1.15,2013-07-26 14:08:00,
2013-07-26 07:14:00,60.3,58.3,30.06,WSW,239,0.0,0.0,93,0.00,,,0.00,Wunderground v.1.15,2013-07-26 14:14:00,
2013-07-26 07:20:00,60.5,58.5,30.06,WSW,246,0.0,0.0,93,0.00,,,0.00,Wunderground v.1.15,2013-07-26 14:20:00,
2013-07-26 07:26:00,60.7,58.4,30.06,WSW,246,0.0,0.0,92,0.00,,,0.00,Wunderground v.1.15,2013-07-26 14:26:00,
2013-07-26 07:32:00,60.9,58.6,30.06,WSW,250,0.0,0.0,92,0.00,,,0.00,Wunderground v.1.15,2013-07-26 14:32:00,
2013-07-26 07:38:00,61.0,58.7,30.06,WSW,250,0.0,0.0,92,0.00,,,0.00,Wunderground v.1.15,2013-07-26 14:38:00,
2013-07-26 07:44:00,61.4,59.1,30.06,WSW,256,0.0,0.0,92,0.00,,,0.00,Wunderground v.1.15,2013-07-26 14:44:00,
2013-07-26 07:50:00,61.7,59.0,30.06,SW,229,0.0,0.0,91,0.00,,,0.00,Wunderground v.1.15,2013-07-26 14:50:00,
2013-07-26 07:56:00,62.0,59.3,30.06,WSW,252,0.0,1.0,91,0.00,,,0.00,Wunderground v.1.15,2013-07-26 14:56:00,